sensor_id;sensor_type;location;lat;lon;timestamp;pressure;altitude;pressure_sealevel;temperature;humidity
28181;BME280;15464;50.988;10.318;2023-03-16T00:01:06;99504.78;;;-2.62;83.76
28181;BME280;15464;50.988;10.318;2023-03-16T00:03:34;99500.59;;;-2.68;84.00
28181;BME280;15464;50.988;10.318;2023-03-16T00:06:02;99504.16;;;-2.72;84.35
28181;BME280;15464;50.988;10.318;2023-03-16T00:08:29;99519.81;;;-2.75;84.46
28181;BME280;15464;50.988;10.318;2023-03-16T00:12:46;99519.75;;;-2.72;84.90
28181;BME280;15464;50.988;10.318;2023-03-16T00:15:12;99518.84;;;-2.69;84.41
28181;BME280;15464;50.988;10.318;2023-03-16T00:17:39;99516.19;;;-2.68;84.43
28181;BME280;15464;50.988;10.318;2023-03-16T00:20:06;99522.31;;;-2.70;84.10
28181;BME280;15464;50.988;10.318;2023-03-16T00:22:33;99514.75;;;-2.81;83.75
28181;BME280;15464;50.988;10.318;2023-03-16T00:25:00;99507.09;;;-2.87;84.06
28181;BME280;15464;50.988;10.318;2023-03-16T00:27:27;99503.69;;;-2.88;84.64
28181;BME280;15464;50.988;10.318;2023-03-16T00:29:54;99506.28;;;-2.89;84.15
28181;BME280;15464;50.988;10.318;2023-03-16T00:32:29;99514.22;;;-2.95;84.24
28181;BME280;15464;50.988;10.318;2023-03-16T00:34:58;99518.56;;;-2.97;84.36
28181;BME280;15464;50.988;10.318;2023-03-16T00:37:25;99515.97;;;-2.96;84.69
28181;BME280;15464;50.988;10.318;2023-03-16T00:39:53;99502.25;;;-3.01;84.70
28181;BME280;15464;50.988;10.318;2023-03-16T00:42:25;99501.44;;;-3.04;85.19
28181;BME280;15464;50.988;10.318;2023-03-16T00:44:53;99498.09;;;-3.09;85.09
28181;BME280;15464;50.988;10.318;2023-03-16T00:47:24;99508.59;;;-3.15;85.04
28181;BME280;15464;50.988;10.318;2023-03-16T00:49:51;99499.94;;;-3.14;84.97
28181;BME280;15464;50.988;10.318;2023-03-16T00:52:18;99498.97;;;-3.10;85.96
28181;BME280;15464;50.988;10.318;2023-03-16T00:54:46;99499.94;;;-3.14;85.81
28181;BME280;15464;50.988;10.318;2023-03-16T00:57:16;99503.41;;;-3.15;86.45
28181;BME280;15464;50.988;10.318;2023-03-16T00:59:47;99495.72;;;-3.20;85.98
28181;BME280;15464;50.988;10.318;2023-03-16T01:02:16;99500.88;;;-3.18;85.19
28181;BME280;15464;50.988;10.318;2023-03-16T01:04:44;99505.28;;;-3.22;85.32
28181;BME280;15464;50.988;10.318;2023-03-16T01:07:13;99509.59;;;-3.21;85.61
28181;BME280;15464;50.988;10.318;2023-03-16T01:09:40;99501.81;;;-3.22;85.85
28181;BME280;15464;50.988;10.318;2023-03-16T01:12:13;99509.72;;;-3.27;85.36
28181;BME280;15464;50.988;10.318;2023-03-16T01:14:41;99503.59;;;-3.25;86.04
28181;BME280;15464;50.988;10.318;2023-03-16T01:17:12;99501.06;;;-3.28;85.53
28181;BME280;15464;50.988;10.318;2023-03-16T01:19:40;99503.72;;;-3.31;85.25
28181;BME280;15464;50.988;10.318;2023-03-16T01:22:08;99500.38;;;-3.36;86.13
28181;BME280;15464;50.988;10.318;2023-03-16T01:24:35;99504.69;;;-3.36;85.47
28181;BME280;15464;50.988;10.318;2023-03-16T01:27:03;99494.31;;;-3.35;85.62
28181;BME280;15464;50.988;10.318;2023-03-16T01:29:31;99493.47;;;-3.37;85.32
28181;BME280;15464;50.988;10.318;2023-03-16T01:31:59;99499.63;;;-3.42;85.48
28181;BME280;15464;50.988;10.318;2023-03-16T01:34:26;99499.72;;;-3.45;86.17
28181;BME280;15464;50.988;10.318;2023-03-16T01:36:53;99498.91;;;-3.49;85.96
28181;BME280;15464;50.988;10.318;2023-03-16T01:39:20;99498.91;;;-3.49;86.20
28181;BME280;15464;50.988;10.318;2023-03-16T01:41:47;99499.72;;;-3.45;86.55
28181;BME280;15464;50.988;10.318;2023-03-16T01:44:16;99498.72;;;-3.40;86.68
28181;BME280;15464;50.988;10.318;2023-03-16T01:46:43;99499.63;;;-3.42;85.75
28181;BME280;15464;50.988;10.318;2023-03-16T01:49:13;99498.78;;;-3.43;85.96
28181;BME280;15464;50.988;10.318;2023-03-16T01:51:44;99488.41;;;-3.43;85.98
28181;BME280;15464;50.988;10.318;2023-03-16T01:54:34;99485.91;;;-3.47;85.85
28181;BME280;15464;50.988;10.318;2023-03-16T01:57:06;99480.09;;;-3.57;86.22
28181;BME280;15464;50.988;10.318;2023-03-16T01:59:50;99479.34;;;-3.63;86.63
28181;BME280;15464;50.988;10.318;2023-03-16T02:02:20;99469.88;;;-3.66;86.88
28181;BME280;15464;50.988;10.318;2023-03-16T02:05:14;99477.69;;;-3.68;86.98
28181;BME280;15464;50.988;10.318;2023-03-16T02:07:46;99471.59;;;-3.65;87.26
28181;BME280;15464;50.988;10.318;2023-03-16T02:10:15;99468.03;;;-3.61;86.97
28181;BME280;15464;50.988;10.318;2023-03-16T02:12:43;99463.75;;;-3.62;86.72
28181;BME280;15464;50.988;10.318;2023-03-16T02:15:11;99465.56;;;-3.67;86.96
28181;BME280;15464;50.988;10.318;2023-03-16T02:17:42;99463.09;;;-3.73;86.96
28181;BME280;15464;50.988;10.318;2023-03-16T02:22:47;99472.78;;;-3.81;87.79
28181;BME280;15464;50.988;10.318;2023-03-16T02:25:16;99474.44;;;-3.77;87.56
28181;BME280;15464;50.988;10.318;2023-03-16T02:27:52;99471.75;;;-3.74;87.74
28181;BME280;15464;50.988;10.318;2023-03-16T02:30:23;99469.16;;;-3.73;87.49
28181;BME280;15464;50.988;10.318;2023-03-16T02:32:50;99478.59;;;-3.70;87.34
28181;BME280;15464;50.988;10.318;2023-03-16T02:35:19;99474.31;;;-3.73;87.37
28181;BME280;15464;50.988;10.318;2023-03-16T02:37:46;99477.06;;;-3.80;87.85
28181;BME280;15464;50.988;10.318;2023-03-16T02:40:28;99482.31;;;-3.83;87.73
28181;BME280;15464;50.988;10.318;2023-03-16T02:43:08;99481.56;;;-3.88;87.98
28181;BME280;15464;50.988;10.318;2023-03-16T02:45:43;99470.34;;;-3.90;87.88
28181;BME280;15464;50.988;10.318;2023-03-16T02:48:24;99477.38;;;-3.95;87.61
28181;BME280;15464;50.988;10.318;2023-03-16T02:50:53;99464.53;;;-4.01;87.47
28181;BME280;15464;50.988;10.318;2023-03-16T02:53:20;99468.00;;;-4.02;87.83
28181;BME280;15464;50.988;10.318;2023-03-16T02:55:47;99462.84;;;-4.04;88.44
28181;BME280;15464;50.988;10.318;2023-03-16T02:58:14;99456.81;;;-4.04;88.42
28181;BME280;15464;50.988;10.318;2023-03-16T03:00:41;99451.66;;;-4.06;88.45
28181;BME280;15464;50.988;10.318;2023-03-16T03:03:08;99447.53;;;-4.18;89.38
28181;BME280;15464;50.988;10.318;2023-03-16T03:05:36;99458.81;;;-4.19;89.53
28181;BME280;15464;50.988;10.318;2023-03-16T03:08:03;99456.97;;;-4.14;89.31
28181;BME280;15464;50.988;10.318;2023-03-16T03:10:30;99446.44;;;-4.04;89.78
28181;BME280;15464;50.988;10.318;2023-03-16T03:12:57;99442.94;;;-4.00;89.13
28181;BME280;15464;50.988;10.318;2023-03-16T03:15:24;99443.03;;;-4.07;88.48
28181;BME280;15464;50.988;10.318;2023-03-16T03:17:51;99444.84;;;-4.12;88.41
28181;BME280;15464;50.988;10.318;2023-03-16T03:20:17;99449.22;;;-4.14;88.29
28181;BME280;15464;50.988;10.318;2023-03-16T03:22:49;99442.38;;;-4.18;88.42
28181;BME280;15464;50.988;10.318;2023-03-16T03:25:18;99439.84;;;-4.21;89.30
28181;BME280;15464;50.988;10.318;2023-03-16T03:27:46;99437.34;;;-4.25;89.78
28181;BME280;15464;50.988;10.318;2023-03-16T03:30:20;99444.19;;;-4.23;89.08
28181;BME280;15464;50.988;10.318;2023-03-16T03:32:47;99442.47;;;-4.24;89.10
28181;BME280;15464;50.988;10.318;2023-03-16T03:35:14;99441.72;;;-4.29;89.48
28181;BME280;15464;50.988;10.318;2023-03-16T03:37:42;99439.97;;;-4.27;88.91
28181;BME280;15464;50.988;10.318;2023-03-16T03:40:14;99429.63;;;-4.30;88.83
28181;BME280;15464;50.988;10.318;2023-03-16T03:42:42;99430.59;;;-4.34;89.63
28181;BME280;15464;50.988;10.318;2023-03-16T03:45:10;99428.88;;;-4.35;89.87
28181;BME280;15464;50.988;10.318;2023-03-16T03:47:39;99426.31;;;-4.36;89.36
28181;BME280;15464;50.988;10.318;2023-03-16T03:50:08;99422.81;;;-4.34;89.50
28181;BME280;15464;50.988;10.318;2023-03-16T03:52:35;99427.94;;;-4.31;89.62
28181;BME280;15464;50.988;10.318;2023-03-16T03:55:02;99425.44;;;-4.35;88.62
28181;BME280;15464;50.988;10.318;2023-03-16T03:57:29;99432.38;;;-4.37;90.58
28181;BME280;15464;50.988;10.318;2023-03-16T03:59:56;99426.41;;;-4.41;90.26
28181;BME280;15464;50.988;10.318;2023-03-16T04:02:22;99422.06;;;-4.39;91.38
28181;BME280;15464;50.988;10.318;2023-03-16T04:04:50;99428.88;;;-4.35;91.81
28181;BME280;15464;50.988;10.318;2023-03-16T04:07:17;99429.72;;;-4.34;91.29
28181;BME280;15464;50.988;10.318;2023-03-16T04:09:43;99426.28;;;-4.35;91.25
28181;BME280;15464;50.988;10.318;2023-03-16T04:14:37;99432.31;;;-4.34;91.31
28181;BME280;15464;50.988;10.318;2023-03-16T04:17:04;99428.78;;;-4.30;91.29
28181;BME280;15464;50.988;10.318;2023-03-16T04:19:31;99432.31;;;-4.33;91.19
28181;BME280;15464;50.988;10.318;2023-03-16T04:21:58;99428.97;;;-4.39;90.63
28181;BME280;15464;50.988;10.318;2023-03-16T04:24:24;99438.56;;;-4.46;90.46
28181;BME280;15464;50.988;10.318;2023-03-16T04:26:51;99436.06;;;-4.51;90.63
28181;BME280;15464;50.988;10.318;2023-03-16T04:29:19;99434.34;;;-4.50;90.59
28181;BME280;15464;50.988;10.318;2023-03-16T04:31:46;99432.53;;;-4.47;90.50
28181;BME280;15464;50.988;10.318;2023-03-16T04:34:13;99429.97;;;-4.48;90.43
28181;BME280;15464;50.988;10.318;2023-03-16T04:36:40;99436.91;;;-4.50;89.94
28181;BME280;15464;50.988;10.318;2023-03-16T04:39:07;99437.81;;;-4.53;91.09
28181;BME280;15464;50.988;10.318;2023-03-16T04:41:36;99435.25;;;-4.54;90.24
28181;BME280;15464;50.988;10.318;2023-03-16T04:44:02;99435.41;;;-4.63;90.35
28181;BME280;15464;50.988;10.318;2023-03-16T04:46:30;99430.13;;;-4.57;90.75
28181;BME280;15464;50.988;10.318;2023-03-16T04:48:57;99438.66;;;-4.52;91.10
28181;BME280;15464;50.988;10.318;2023-03-16T04:51:25;99435.25;;;-4.54;90.29
28181;BME280;15464;50.988;10.318;2023-03-16T04:53:52;99434.44;;;-4.56;90.40
28181;BME280;15464;50.988;10.318;2023-03-16T04:56:19;99433.72;;;-4.64;90.27
28181;BME280;15464;50.988;10.318;2023-03-16T04:58:47;99443.13;;;-4.60;90.64
28181;BME280;15464;50.988;10.318;2023-03-16T05:01:15;99437.84;;;-4.56;90.83
28181;BME280;15464;50.988;10.318;2023-03-16T05:03:43;99443.09;;;-4.59;90.23
28181;BME280;15464;50.988;10.318;2023-03-16T05:06:09;99433.72;;;-4.64;91.02
28181;BME280;15464;50.988;10.318;2023-03-16T05:08:37;99419.94;;;-4.66;91.24
28181;BME280;15464;50.988;10.318;2023-03-16T05:11:04;99435.44;;;-4.66;90.96
28181;BME280;15464;50.988;10.318;2023-03-16T05:13:31;99430.28;;;-4.66;91.43
28181;BME280;15464;50.988;10.318;2023-03-16T05:15:58;99437.28;;;-4.71;90.75
28181;BME280;15464;50.988;10.318;2023-03-16T05:18:25;99435.63;;;-4.75;90.84
28181;BME280;15464;50.988;10.318;2023-03-16T05:20:53;99437.38;;;-4.77;91.61
28181;BME280;15464;50.988;10.318;2023-03-16T05:23:22;99433.94;;;-4.79;91.28
28181;BME280;15464;50.988;10.318;2023-03-16T05:25:49;99430.44;;;-4.75;91.58
28181;BME280;15464;50.988;10.318;2023-03-16T05:28:16;99427.78;;;-4.71;91.68
28181;BME280;15464;50.988;10.318;2023-03-16T05:30:43;99427.72;;;-4.68;91.11
28181;BME280;15464;50.988;10.318;2023-03-16T05:33:13;99420.88;;;-4.72;91.55
28181;BME280;15464;50.988;10.318;2023-03-16T05:35:40;99427.72;;;-4.68;91.05
28181;BME280;15464;50.988;10.318;2023-03-16T05:38:07;99426.91;;;-4.71;90.28
28181;BME280;15464;50.988;10.318;2023-03-16T05:40:35;99430.34;;;-4.69;90.89
28181;BME280;15464;50.988;10.318;2023-03-16T05:43:03;99410.50;;;-4.69;91.40
28181;BME280;15464;50.988;10.318;2023-03-16T05:45:30;99411.50;;;-4.79;90.98
28181;BME280;15464;50.988;10.318;2023-03-16T05:47:57;99415.84;;;-4.79;91.52
28181;BME280;15464;50.988;10.318;2023-03-16T05:50:23;99423.59;;;-4.79;91.82
28181;BME280;15464;50.988;10.318;2023-03-16T05:52:52;99418.47;;;-4.82;91.82
28181;BME280;15464;50.988;10.318;2023-03-16T05:55:19;99421.06;;;-4.82;92.88
28181;BME280;15464;50.988;10.318;2023-03-16T05:57:46;99430.53;;;-4.81;91.99
28181;BME280;15464;50.988;10.318;2023-03-16T06:00:14;99420.22;;;-4.84;91.78
28181;BME280;15464;50.988;10.318;2023-03-16T06:02:43;99432.31;;;-4.85;91.50
28181;BME280;15464;50.988;10.318;2023-03-16T06:05:10;99432.28;;;-4.83;92.19
28181;BME280;15464;50.988;10.318;2023-03-16T06:07:37;99439.13;;;-4.79;91.51
28181;BME280;15464;50.988;10.318;2023-03-16T06:10:05;99434.81;;;-4.80;92.13
28181;BME280;15464;50.988;10.318;2023-03-16T06:12:32;99433.13;;;-4.81;92.18
28181;BME280;15464;50.988;10.318;2023-03-16T06:15:00;99436.53;;;-4.79;93.15
28181;BME280;15464;50.988;10.318;2023-03-16T06:17:28;99440.78;;;-4.75;92.89
28181;BME280;15464;50.988;10.318;2023-03-16T06:19:54;99441.56;;;-4.70;93.23
28181;BME280;15464;50.988;10.318;2023-03-16T06:22:21;99446.75;;;-4.70;93.11
28181;BME280;15464;50.988;10.318;2023-03-16T06:24:50;99449.34;;;-4.70;93.25
28181;BME280;15464;50.988;10.318;2023-03-16T06:27:18;99451.81;;;-4.64;93.50
28181;BME280;15464;50.988;10.318;2023-03-16T06:29:47;99455.16;;;-4.58;93.11
28181;BME280;15464;50.988;10.318;2023-03-16T06:32:14;99453.38;;;-4.54;92.50
28181;BME280;15464;50.988;10.318;2023-03-16T06:34:41;99438.59;;;-4.49;93.04
28181;BME280;15464;50.988;10.318;2023-03-16T06:37:08;99448.97;;;-4.49;92.97
28181;BME280;15464;50.988;10.318;2023-03-16T06:39:35;99438.38;;;-4.37;94.14
28181;BME280;15464;50.988;10.318;2023-03-16T06:42:02;99426.28;;;-4.35;93.67
28181;BME280;15464;50.988;10.318;2023-03-16T06:44:30;99427.16;;;-4.34;95.11
28181;BME280;15464;50.988;10.318;2023-03-16T06:46:57;99425.31;;;-4.29;95.27
28181;BME280;15464;50.988;10.318;2023-03-16T06:49:24;99430.47;;;-4.26;95.77
28181;BME280;15464;50.988;10.318;2023-03-16T06:51:51;99430.34;;;-4.20;96.42
28181;BME280;15464;50.988;10.318;2023-03-16T06:54:18;99442.31;;;-4.15;96.19
28181;BME280;15464;50.988;10.318;2023-03-16T06:56:44;99430.97;;;-4.08;97.31
28181;BME280;15464;50.988;10.318;2023-03-16T06:59:12;99433.44;;;-4.01;96.85
28181;BME280;15464;50.988;10.318;2023-03-16T07:01:38;99437.63;;;-3.94;96.55
28181;BME280;15464;50.988;10.318;2023-03-16T07:04:05;99446.09;;;-3.86;96.79
28181;BME280;15464;50.988;10.318;2023-03-16T07:06:32;99438.16;;;-3.79;96.63
28181;BME280;15464;50.988;10.318;2023-03-16T07:08:59;99442.25;;;-3.67;96.37
28181;BME280;15464;50.988;10.318;2023-03-16T07:11:26;99438.53;;;-3.55;95.95
28181;BME280;15464;50.988;10.318;2023-03-16T07:13:53;99433.06;;;-3.40;95.99
28181;BME280;15464;50.988;10.318;2023-03-16T07:16:20;99437.13;;;-3.30;94.86
28181;BME280;15464;50.988;10.318;2023-03-16T07:18:47;99430.78;;;-3.15;94.78
28181;BME280;15464;50.988;10.318;2023-03-16T07:21:14;99430.31;;;-2.94;95.03
28181;BME280;15464;50.988;10.318;2023-03-16T07:23:41;99429.75;;;-2.71;94.76
28181;BME280;15464;50.988;10.318;2023-03-16T07:26:07;99429.25;;;-2.52;94.38
28181;BME280;15464;50.988;10.318;2023-03-16T07:28:34;99430.50;;;-2.32;93.87
28181;BME280;15464;50.988;10.318;2023-03-16T07:31:01;99430.91;;;-2.15;92.92
28181;BME280;15464;50.988;10.318;2023-03-16T07:33:33;99434.72;;;-1.96;92.88
28181;BME280;15464;50.988;10.318;2023-03-16T07:36:00;99426.13;;;-1.69;93.33
28181;BME280;15464;50.988;10.318;2023-03-16T07:38:32;99422.84;;;-1.44;92.09
28181;BME280;15464;50.988;10.318;2023-03-16T07:40:59;99425.69;;;-1.24;90.09
28181;BME280;15464;50.988;10.318;2023-03-16T07:43:26;99423.28;;;-1.01;89.21
28181;BME280;15464;50.988;10.318;2023-03-16T07:45:54;99425.22;;;-0.81;88.08
28181;BME280;15464;50.988;10.318;2023-03-16T07:48:21;99412.56;;;-0.65;87.93
28181;BME280;15464;50.988;10.318;2023-03-16T07:50:48;99418.88;;;-0.46;85.96
28181;BME280;15464;50.988;10.318;2023-03-16T07:53:16;99414.94;;;-0.31;86.25
28181;BME280;15464;50.988;10.318;2023-03-16T07:55:43;99416.81;;;-0.12;86.25
28181;BME280;15464;50.988;10.318;2023-03-16T07:58:11;99420.63;;;0.05;85.83
28181;BME280;15464;50.988;10.318;2023-03-16T08:00:38;99420.00;;;0.21;84.98
28181;BME280;15464;50.988;10.318;2023-03-16T08:03:05;99428.47;;;0.28;84.74
28181;BME280;15464;50.988;10.318;2023-03-16T08:05:32;99428.69;;;0.45;84.61
28181;BME280;15464;50.988;10.318;2023-03-16T08:07:59;99421.72;;;0.46;82.75
28181;BME280;15464;50.988;10.318;2023-03-16T08:10:28;99421.53;;;0.50;82.70
28181;BME280;15464;50.988;10.318;2023-03-16T08:12:55;99423.19;;;0.53;81.88
28181;BME280;15464;50.988;10.318;2023-03-16T08:15:22;99420.88;;;0.45;81.16
28181;BME280;15464;50.988;10.318;2023-03-16T08:17:50;99425.53;;;0.37;81.12
28181;BME280;15464;50.988;10.318;2023-03-16T08:20:18;99437.41;;;0.44;81.75
28181;BME280;15464;50.988;10.318;2023-03-16T08:22:45;99430.19;;;0.52;81.06
28181;BME280;15464;50.988;10.318;2023-03-16T08:25:13;99423.66;;;0.64;82.12
28181;BME280;15464;50.988;10.318;2023-03-16T08:27:40;99417.09;;;0.75;82.76
28181;BME280;15464;50.988;10.318;2023-03-16T08:30:10;99425.31;;;0.88;82.41
28181;BME280;15464;50.988;10.318;2023-03-16T08:32:38;99423.22;;;0.98;81.64
28181;BME280;15464;50.988;10.318;2023-03-16T08:35:09;99425.59;;;1.04;81.60
28181;BME280;15464;50.988;10.318;2023-03-16T08:37:36;99423.44;;;1.13;81.73
28181;BME280;15464;50.988;10.318;2023-03-16T08:40:03;99416.88;;;1.25;81.32
28181;BME280;15464;50.988;10.318;2023-03-16T08:42:36;99418.00;;;1.41;80.79
28181;BME280;15464;50.988;10.318;2023-03-16T08:45:05;99413.41;;;1.68;77.96
28181;BME280;15464;50.988;10.318;2023-03-16T08:47:39;99411.13;;;1.81;78.65
28181;BME280;15464;50.988;10.318;2023-03-16T08:50:07;99409.78;;;1.91;77.96
28181;BME280;15464;50.988;10.318;2023-03-16T08:52:34;99416.47;;;1.98;77.25
28181;BME280;15464;50.988;10.318;2023-03-16T08:55:03;99415.72;;;2.15;72.96
28181;BME280;15464;50.988;10.318;2023-03-16T08:57:32;99415.91;;;2.30;72.49
28181;BME280;15464;50.988;10.318;2023-03-16T09:00:00;99413.50;;;2.44;72.06
28181;BME280;15464;50.988;10.318;2023-03-16T09:02:27;99420.97;;;2.54;73.66
28181;BME280;15464;50.988;10.318;2023-03-16T09:04:54;99407.16;;;2.69;69.99
28181;BME280;15464;50.988;10.318;2023-03-16T09:07:21;99396.84;;;2.84;67.73
28181;BME280;15464;50.988;10.318;2023-03-16T09:09:48;99407.88;;;2.91;69.55
28181;BME280;15464;50.988;10.318;2023-03-16T09:12:16;99411.28;;;2.93;68.65
28181;BME280;15464;50.988;10.318;2023-03-16T09:14:42;99408.66;;;2.93;69.05
28181;BME280;15464;50.988;10.318;2023-03-16T09:17:11;99402.47;;;2.94;65.85
28181;BME280;15464;50.988;10.318;2023-03-16T09:19:38;99409.13;;;3.01;65.22
28181;BME280;15464;50.988;10.318;2023-03-16T09:22:17;99409.63;;;3.09;66.39
28181;BME280;15464;50.988;10.318;2023-03-16T09:24:45;99407.69;;;3.13;65.74
28181;BME280;15464;50.988;10.318;2023-03-16T09:27:13;99406.84;;;3.12;66.38
28181;BME280;15464;50.988;10.318;2023-03-16T09:29:41;99403.00;;;3.19;65.68
28181;BME280;15464;50.988;10.318;2023-03-16T09:32:09;99407.09;;;3.25;65.81
28181;BME280;15464;50.988;10.318;2023-03-16T09:34:35;99403.97;;;3.36;64.30
28181;BME280;15464;50.988;10.318;2023-03-16T09:37:02;99407.47;;;3.36;60.14
28181;BME280;15464;50.988;10.318;2023-03-16T09:39:29;99405.63;;;3.73;62.64
28181;BME280;15464;50.988;10.318;2023-03-16T09:42:14;99403.69;;;3.59;63.08
28181;BME280;15464;50.988;10.318;2023-03-16T09:44:58;99410.03;;;3.55;63.03
28181;BME280;15464;50.988;10.318;2023-03-16T09:47:30;99415.34;;;3.71;58.43
28181;BME280;15464;50.988;10.318;2023-03-16T09:50:02;99394.59;;;3.83;60.54
28181;BME280;15464;50.988;10.318;2023-03-16T09:53:31;99398.28;;;3.96;59.13
28181;BME280;15464;50.988;10.318;2023-03-16T09:55:54;99389.19;;;3.86;58.60
28181;BME280;15464;50.988;10.318;2023-03-16T09:58:42;99381.34;;;3.86;60.11
28181;BME280;15464;50.988;10.318;2023-03-16T10:07:38;99394.63;;;4.16;56.19
28181;BME280;15464;50.988;10.318;2023-03-16T10:16:13;99388.03;;;4.42;54.94
28181;BME280;15464;50.988;10.318;2023-03-16T10:18:45;99388.09;;;4.40;55.84
28181;BME280;15464;50.988;10.318;2023-03-16T10:21:16;99378.78;;;4.35;57.07
28181;BME280;15464;50.988;10.318;2023-03-16T10:23:47;99373.25;;;4.39;55.75
28181;BME280;15464;50.988;10.318;2023-03-16T10:26:20;99371.88;;;4.65;55.90
28181;BME280;15464;50.988;10.318;2023-03-16T10:28:49;99359.16;;;4.73;55.05
28181;BME280;15464;50.988;10.318;2023-03-16T10:31:20;99360.09;;;4.72;52.87
28181;BME280;15464;50.988;10.318;2023-03-16T10:33:51;99359.91;;;4.75;55.21
28181;BME280;15464;50.988;10.318;2023-03-16T10:39:05;99363.63;;;5.03;55.52
28181;BME280;15464;50.988;10.318;2023-03-16T10:41:35;99367.28;;;5.16;55.94
28181;BME280;15464;50.988;10.318;2023-03-16T10:44:26;99359.69;;;5.41;51.89
28181;BME280;15464;50.988;10.318;2023-03-16T10:47:05;99357.13;;;5.40;51.40
28181;BME280;15464;50.988;10.318;2023-03-16T10:49:42;99359.13;;;5.50;50.48
28181;BME280;15464;50.988;10.318;2023-03-16T10:52:42;99354.81;;;5.79;51.83
28181;BME280;15464;50.988;10.318;2023-03-16T10:55:27;99347.00;;;5.78;51.55
28181;BME280;15464;50.988;10.318;2023-03-16T10:57:56;99350.75;;;5.74;53.06
28181;BME280;15464;50.988;10.318;2023-03-16T11:00:28;99341.38;;;5.84;52.22
28181;BME280;15464;50.988;10.318;2023-03-16T11:02:58;99340.28;;;5.88;51.17
28181;BME280;15464;50.988;10.318;2023-03-16T11:05:31;99328.66;;;5.76;48.10
28181;BME280;15464;50.988;10.318;2023-03-16T11:08:00;99321.69;;;5.91;50.41
28181;BME280;15464;50.988;10.318;2023-03-16T11:10:36;99323.41;;;5.76;48.74
28181;BME280;15464;50.988;10.318;2023-03-16T11:13:20;99316.66;;;5.86;48.45
28181;BME280;15464;50.988;10.318;2023-03-16T11:15:54;99315.13;;;6.12;47.30
28181;BME280;15464;50.988;10.318;2023-03-16T11:18:36;99312.56;;;6.11;50.29
28181;BME280;15464;50.988;10.318;2023-03-16T11:23:46;99313.59;;;6.36;47.72
28181;BME280;15464;50.988;10.318;2023-03-16T11:26:22;99299.50;;;6.64;50.71
28181;BME280;15464;50.988;10.318;2023-03-16T11:28:59;99305.19;;;6.58;49.09
28181;BME280;15464;50.988;10.318;2023-03-16T11:34:14;99291.88;;;6.74;49.54
28181;BME280;15464;50.988;10.318;2023-03-16T11:36:50;99301.19;;;6.79;49.75
28181;BME280;15464;50.988;10.318;2023-03-16T11:42:32;99298.25;;;6.84;47.50
28181;BME280;15464;50.988;10.318;2023-03-16T11:50:36;99289.97;;;7.29;48.35
28181;BME280;15464;50.988;10.318;2023-03-16T11:53:23;99280.28;;;7.43;49.16
28181;BME280;15464;50.988;10.318;2023-03-16T12:10:22;99259.06;;;8.07;49.00
28181;BME280;15464;50.988;10.318;2023-03-16T12:15:50;99234.38;;;8.45;48.95
28181;BME280;15464;50.988;10.318;2023-03-16T12:18:24;99226.88;;;8.75;48.89
28181;BME280;15464;50.988;10.318;2023-03-16T12:20:59;99217.78;;;8.79;45.56
28181;BME280;15464;50.988;10.318;2023-03-16T12:23:33;99228.47;;;9.13;48.54
28181;BME280;15464;50.988;10.318;2023-03-16T12:26:02;99226.69;;;9.24;45.63
28181;BME280;15464;50.988;10.318;2023-03-16T12:28:29;99219.94;;;9.09;40.64
28181;BME280;15464;50.988;10.318;2023-03-16T12:31:23;99225.13;;;9.11;46.02
28181;BME280;15464;50.988;10.318;2023-03-16T12:37:51;99209.38;;;9.66;44.88
28181;BME280;15464;50.988;10.318;2023-03-16T12:45:25;99216.75;;;9.39;42.75
28181;BME280;15464;50.988;10.318;2023-03-16T12:50:52;99210.25;;;9.32;44.62
28181;BME280;15464;50.988;10.318;2023-03-16T12:53:25;99200.81;;;9.96;44.78
28181;BME280;15464;50.988;10.318;2023-03-16T12:55:52;99189.97;;;9.99;46.08
28181;BME280;15464;50.988;10.318;2023-03-16T12:58:22;99182.63;;;10.14;45.06
28181;BME280;15464;50.988;10.318;2023-03-16T13:00:58;99197.00;;;10.23;44.29
28181;BME280;15464;50.988;10.318;2023-03-16T13:03:25;99185.94;;;10.49;46.33
28181;BME280;15464;50.988;10.318;2023-03-16T13:05:56;99186.34;;;10.00;41.43
28181;BME280;15464;50.988;10.318;2023-03-16T13:08:25;99192.50;;;10.34;45.17
28181;BME280;15464;50.988;10.318;2023-03-16T13:13:26;99183.34;;;9.83;46.57
28181;BME280;15464;50.988;10.318;2023-03-16T13:16:30;99182.16;;;9.98;43.89
28181;BME280;15464;50.988;10.318;2023-03-16T13:18:58;99170.81;;;10.07;44.21
28181;BME280;15464;50.988;10.318;2023-03-16T13:24:33;99164.19;;;9.00;44.96
28181;BME280;15464;50.988;10.318;2023-03-16T13:26:49;99151.97;;;9.10;43.69
28181;BME280;15464;50.988;10.318;2023-03-16T13:29:24;99155.44;;;9.79;45.61
28181;BME280;15464;50.988;10.318;2023-03-16T13:31:53;99153.13;;;9.96;44.79
28181;BME280;15464;50.988;10.318;2023-03-16T13:36:53;99156.16;;;10.89;43.46
28181;BME280;15464;50.988;10.318;2023-03-16T13:39:22;99148.59;;;11.47;42.71
28181;BME280;15464;50.988;10.318;2023-03-16T13:41:56;99140.81;;;11.55;42.94
28181;BME280;15464;50.988;10.318;2023-03-16T13:44:25;99149.81;;;11.01;42.29
28181;BME280;15464;50.988;10.318;2023-03-16T13:46:53;99143.69;;;10.69;39.67
28181;BME280;15464;50.988;10.318;2023-03-16T13:49:20;99142.63;;;10.06;41.95
28181;BME280;15464;50.988;10.318;2023-03-16T13:51:47;99149.84;;;10.26;43.31
28181;BME280;15464;50.988;10.318;2023-03-16T13:54:22;99152.53;;;10.04;41.28
28181;BME280;15464;50.988;10.318;2023-03-16T13:56:51;99142.84;;;10.36;43.38
28181;BME280;15464;50.988;10.318;2023-03-16T13:59:19;99136.28;;;9.86;43.49
28181;BME280;15464;50.988;10.318;2023-03-16T14:01:47;99129.03;;;10.22;42.93
28181;BME280;15464;50.988;10.318;2023-03-16T14:04:15;99125.75;;;10.29;43.26
28181;BME280;15464;50.988;10.318;2023-03-16T14:06:58;99121.84;;;10.44;43.65
28181;BME280;15464;50.988;10.318;2023-03-16T14:09:32;99108.34;;;10.68;42.77
28181;BME280;15464;50.988;10.318;2023-03-16T14:12:00;99107.91;;;10.31;43.01
28181;BME280;15464;50.988;10.318;2023-03-16T14:14:37;99105.00;;;10.66;44.88
28181;BME280;15464;50.988;10.318;2023-03-16T14:17:11;99092.59;;;11.08;43.95
28181;BME280;15464;50.988;10.318;2023-03-16T14:19:45;99097.06;;;10.34;41.48